sensor_id;sensor_type;location;lat;lon;timestamp;P1;durP1;ratioP1;P2;durP2;ratioP2
70216;SDS011;65567;55.684;37.570;2023-08-20T00:00:06;17.90;;;11.73;;
70216;SDS011;65567;55.684;37.570;2023-08-20T00:02:33;18.98;;;12.18;;
70216;SDS011;65567;55.684;37.570;2023-08-20T00:05:02;17.63;;;13.48;;
70216;SDS011;65567;55.684;37.570;2023-08-20T00:07:31;15.73;;;11.75;;
70216;SDS011;65567;55.684;37.570;2023-08-20T00:09:57;14.68;;;12.07;;
70216;SDS011;65567;55.684;37.570;2023-08-20T00:12:22;21.40;;;12.48;;
70216;SDS011;65567;55.684;37.570;2023-08-20T00:15:06;18.02;;;11.90;;
70216;SDS011;65567;55.684;37.570;2023-08-20T00:17:33;17.27;;;12.02;;
70216;SDS011;65567;55.684;37.570;2023-08-20T00:20:06;14.60;;;11.40;;
70216;SDS011;65567;55.684;37.570;2023-08-20T00:22:35;15.63;;;11.43;;
70216;SDS011;65567;55.684;37.570;2023-08-20T00:25:02;15.48;;;12.10;;
70216;SDS011;65567;55.684;37.570;2023-08-20T00:27:30;15.23;;;12.05;;
70216;SDS011;65567;55.684;37.570;2023-08-20T00:29:55;17.92;;;11.60;;
70216;SDS011;65567;55.684;37.570;2023-08-20T00:32:21;17.63;;;12.18;;
70216;SDS011;65567;55.684;37.570;2023-08-20T00:34:46;18.27;;;12.05;;
70216;SDS011;65567;55.684;37.570;2023-08-20T00:37:12;17.90;;;12.38;;
70216;SDS011;65567;55.684;37.570;2023-08-20T00:39:37;15.15;;;11.10;;
70216;SDS011;65567;55.684;37.570;2023-08-20T00:42:03;19.63;;;11.10;;
70216;SDS011;65567;55.684;37.570;2023-08-20T00:44:29;16.50;;;12.20;;
70216;SDS011;65567;55.684;37.570;2023-08-20T00:46:55;16.77;;;11.52;;
70216;SDS011;65567;55.684;37.570;2023-08-20T00:49:21;16.48;;;12.52;;
70216;SDS011;65567;55.684;37.570;2023-08-20T00:51:47;17.48;;;11.45;;
70216;SDS011;65567;55.684;37.570;2023-08-20T00:54:14;15.63;;;12.07;;
70216;SDS011;65567;55.684;37.570;2023-08-20T00:56:39;14.05;;;11.95;;
70216;SDS011;65567;55.684;37.570;2023-08-20T00:59:05;22.98;;;12.43;;
70216;SDS011;65567;55.684;37.570;2023-08-20T01:01:31;16.52;;;11.15;;
70216;SDS011;65567;55.684;37.570;2023-08-20T01:03:56;17.73;;;12.15;;
70216;SDS011;65567;55.684;37.570;2023-08-20T01:08:53;16.50;;;11.82;;
70216;SDS011;65567;55.684;37.570;2023-08-20T01:11:26;14.07;;;10.60;;
70216;SDS011;65567;55.684;37.570;2023-08-20T01:13:58;17.63;;;11.77;;
70216;SDS011;65567;55.684;37.570;2023-08-20T01:16:23;16.90;;;11.68;;
70216;SDS011;65567;55.684;37.570;2023-08-20T01:18:49;18.50;;;11.90;;
70216;SDS011;65567;55.684;37.570;2023-08-20T01:22:04;18.52;;;11.88;;
70216;SDS011;65567;55.684;37.570;2023-08-20T01:26:49;16.27;;;11.88;;
70216;SDS011;65567;55.684;37.570;2023-08-20T01:29:27;16.73;;;11.90;;
70216;SDS011;65567;55.684;37.570;2023-08-20T01:31:54;16.92;;;11.48;;
70216;SDS011;65567;55.684;37.570;2023-08-20T01:34:20;14.82;;;11.85;;
70216;SDS011;65567;55.684;37.570;2023-08-20T01:36:46;15.32;;;11.55;;
70216;SDS011;65567;55.684;37.570;2023-08-20T01:39:12;17.50;;;12.13;;
70216;SDS011;65567;55.684;37.570;2023-08-20T01:41:38;14.18;;;12.63;;
70216;SDS011;65567;55.684;37.570;2023-08-20T01:44:04;15.32;;;12.00;;
70216;SDS011;65567;55.684;37.570;2023-08-20T01:46:29;15.52;;;12.02;;
70216;SDS011;65567;55.684;37.570;2023-08-20T01:48:55;14.70;;;11.93;;
70216;SDS011;65567;55.684;37.570;2023-08-20T01:51:20;17.27;;;12.48;;
70216;SDS011;65567;55.684;37.570;2023-08-20T01:53:46;15.98;;;11.93;;
70216;SDS011;65567;55.684;37.570;2023-08-20T01:56:11;17.58;;;12.43;;
70216;SDS011;65567;55.684;37.570;2023-08-20T01:58:38;16.60;;;11.98;;
70216;SDS011;65567;55.684;37.570;2023-08-20T02:01:03;16.13;;;11.82;;
70216;SDS011;65567;55.684;37.570;2023-08-20T02:03:29;17.65;;;12.20;;
70216;SDS011;65567;55.684;37.570;2023-08-20T02:05:54;16.25;;;11.82;;
70216;SDS011;65567;55.684;37.570;2023-08-20T02:08:20;14.40;;;12.13;;
70216;SDS011;65567;55.684;37.570;2023-08-20T02:10:45;20.05;;;13.13;;
70216;SDS011;65567;55.684;37.570;2023-08-20T02:13:11;18.67;;;13.15;;
70216;SDS011;65567;55.684;37.570;2023-08-20T02:15:36;18.88;;;13.95;;
70216;SDS011;65567;55.684;37.570;2023-08-20T02:18:02;17.15;;;13.43;;
70216;SDS011;65567;55.684;37.570;2023-08-20T02:20:28;15.82;;;12.27;;
70216;SDS011;65567;55.684;37.570;2023-08-20T02:22:53;15.48;;;11.95;;
70216;SDS011;65567;55.684;37.570;2023-08-20T02:25:19;17.45;;;12.82;;
70216;SDS011;65567;55.684;37.570;2023-08-20T02:27:44;16.17;;;12.77;;
70216;SDS011;65567;55.684;37.570;2023-08-20T02:30:10;18.98;;;13.40;;
70216;SDS011;65567;55.684;37.570;2023-08-20T02:32:38;15.95;;;13.45;;
70216;SDS011;65567;55.684;37.570;2023-08-20T02:35:04;19.75;;;13.88;;
70216;SDS011;65567;55.684;37.570;2023-08-20T02:37:31;17.27;;;14.23;;
70216;SDS011;65567;55.684;37.570;2023-08-20T02:39:57;14.82;;;13.23;;
70216;SDS011;65567;55.684;37.570;2023-08-20T02:42:22;22.70;;;13.75;;
70216;SDS011;65567;55.684;37.570;2023-08-20T02:44:48;17.95;;;13.55;;
70216;SDS011;65567;55.684;37.570;2023-08-20T02:47:13;19.05;;;12.98;;
70216;SDS011;65567;55.684;37.570;2023-08-20T02:49:38;17.95;;;14.52;;
70216;SDS011;65567;55.684;37.570;2023-08-20T02:52:04;21.10;;;14.00;;
70216;SDS011;65567;55.684;37.570;2023-08-20T02:54:29;23.67;;;14.50;;
70216;SDS011;65567;55.684;37.570;2023-08-20T02:56:57;15.48;;;12.63;;
70216;SDS011;65567;55.684;37.570;2023-08-20T02:59:23;19.77;;;14.23;;
70216;SDS011;65567;55.684;37.570;2023-08-20T03:01:48;18.75;;;14.25;;
70216;SDS011;65567;55.684;37.570;2023-08-20T03:04:14;19.83;;;14.80;;
70216;SDS011;65567;55.684;37.570;2023-08-20T03:06:39;19.90;;;15.30;;
70216;SDS011;65567;55.684;37.570;2023-08-20T03:09:05;17.35;;;14.50;;
70216;SDS011;65567;55.684;37.570;2023-08-20T03:11:30;16.63;;;13.98;;
70216;SDS011;65567;55.684;37.570;2023-08-20T03:13:56;17.52;;;13.75;;
70216;SDS011;65567;55.684;37.570;2023-08-20T03:16:21;18.25;;;14.68;;
70216;SDS011;65567;55.684;37.570;2023-08-20T03:18:47;20.80;;;14.23;;
70216;SDS011;65567;55.684;37.570;2023-08-20T03:21:13;16.05;;;14.38;;
70216;SDS011;65567;55.684;37.570;2023-08-20T03:23:38;15.32;;;13.68;;
70216;SDS011;65567;55.684;37.570;2023-08-20T03:26:04;19.30;;;14.27;;
70216;SDS011;65567;55.684;37.570;2023-08-20T03:28:29;17.08;;;14.32;;
70216;SDS011;65567;55.684;37.570;2023-08-20T03:30:55;16.45;;;13.45;;
70216;SDS011;65567;55.684;37.570;2023-08-20T03:33:24;19.95;;;14.07;;
70216;SDS011;65567;55.684;37.570;2023-08-20T03:35:49;19.15;;;13.60;;
70216;SDS011;65567;55.684;37.570;2023-08-20T03:38:15;17.42;;;14.07;;
70216;SDS011;65567;55.684;37.570;2023-08-20T03:40:40;20.13;;;14.02;;
70216;SDS011;65567;55.684;37.570;2023-08-20T03:43:06;16.52;;;14.13;;
70216;SDS011;65567;55.684;37.570;2023-08-20T03:45:31;16.42;;;14.65;;
70216;SDS011;65567;55.684;37.570;2023-08-20T03:47:56;17.92;;;13.93;;
70216;SDS011;65567;55.684;37.570;2023-08-20T03:50:22;14.90;;;13.07;;
70216;SDS011;65567;55.684;37.570;2023-08-20T03:52:47;19.17;;;13.75;;
70216;SDS011;65567;55.684;37.570;2023-08-20T03:55:13;17.58;;;14.43;;
70216;SDS011;65567;55.684;37.570;2023-08-20T03:57:38;19.38;;;14.30;;
70216;SDS011;65567;55.684;37.570;2023-08-20T04:00:04;20.13;;;14.70;;
70216;SDS011;65567;55.684;37.570;2023-08-20T04:02:33;19.70;;;15.60;;
70216;SDS011;65567;55.684;37.570;2023-08-20T04:04:59;20.77;;;16.33;;
70216;SDS011;65567;55.684;37.570;2023-08-20T04:07:25;21.75;;;15.63;;
70216;SDS011;65567;55.684;37.570;2023-08-20T04:09:50;19.77;;;16.70;;
70216;SDS011;65567;55.684;37.570;2023-08-20T04:12:16;19.58;;;16.15;;
70216;SDS011;65567;55.684;37.570;2023-08-20T04:14:41;24.52;;;17.60;;
70216;SDS011;65567;55.684;37.570;2023-08-20T04:17:06;19.60;;;15.95;;
70216;SDS011;65567;55.684;37.570;2023-08-20T04:19:32;19.88;;;14.88;;
70216;SDS011;65567;55.684;37.570;2023-08-20T04:21:57;16.00;;;12.98;;
70216;SDS011;65567;55.684;37.570;2023-08-20T04:24:23;16.17;;;11.50;;
70216;SDS011;65567;55.684;37.570;2023-08-20T04:26:48;18.40;;;13.80;;
70216;SDS011;65567;55.684;37.570;2023-08-20T04:29:13;20.27;;;14.77;;
70216;SDS011;65567;55.684;37.570;2023-08-20T04:31:39;17.55;;;12.50;;
70216;SDS011;65567;55.684;37.570;2023-08-20T04:34:04;15.68;;;11.25;;
70216;SDS011;65567;55.684;37.570;2023-08-20T04:36:30;11.32;;;10.00;;
70216;SDS011;65567;55.684;37.570;2023-08-20T04:38:55;12.52;;;10.10;;
70216;SDS011;65567;55.684;37.570;2023-08-20T04:41:21;13.77;;;9.43;;
70216;SDS011;65567;55.684;37.570;2023-08-20T04:43:46;13.90;;;9.73;;
70216;SDS011;65567;55.684;37.570;2023-08-20T04:46:12;13.27;;;9.50;;
70216;SDS011;65567;55.684;37.570;2023-08-20T04:48:37;15.10;;;9.93;;
70216;SDS011;65567;55.684;37.570;2023-08-20T04:51:03;14.70;;;11.77;;
70216;SDS011;65567;55.684;37.570;2023-08-20T04:53:30;16.30;;;10.50;;
70216;SDS011;65567;55.684;37.570;2023-08-20T04:55:56;13.45;;;10.02;;
70216;SDS011;65567;55.684;37.570;2023-08-20T04:58:22;11.38;;;9.18;;
70216;SDS011;65567;55.684;37.570;2023-08-20T05:00:48;53.33;;;38.65;;
70216;SDS011;65567;55.684;37.570;2023-08-20T05:03:13;13.05;;;10.05;;
70216;SDS011;65567;55.684;37.570;2023-08-20T05:05:39;13.93;;;10.35;;
70216;SDS011;65567;55.684;37.570;2023-08-20T05:08:04;12.75;;;9.60;;
70216;SDS011;65567;55.684;37.570;2023-08-20T05:10:30;12.45;;;10.13;;
70216;SDS011;65567;55.684;37.570;2023-08-20T05:12:55;13.65;;;9.75;;
70216;SDS011;65567;55.684;37.570;2023-08-20T05:15:21;13.15;;;11.52;;
70216;SDS011;65567;55.684;37.570;2023-08-20T05:17:47;12.00;;;10.02;;
70216;SDS011;65567;55.684;37.570;2023-08-20T05:20:13;12.80;;;10.35;;
70216;SDS011;65567;55.684;37.570;2023-08-20T05:22:38;13.98;;;10.57;;
70216;SDS011;65567;55.684;37.570;2023-08-20T05:25:05;13.40;;;10.23;;
70216;SDS011;65567;55.684;37.570;2023-08-20T05:27:31;11.45;;;10.00;;
70216;SDS011;65567;55.684;37.570;2023-08-20T05:29:56;13.57;;;10.85;;
70216;SDS011;65567;55.684;37.570;2023-08-20T05:32:21;15.15;;;11.82;;
70216;SDS011;65567;55.684;37.570;2023-08-20T05:34:47;16.15;;;10.23;;
70216;SDS011;65567;55.684;37.570;2023-08-20T05:37:13;12.18;;;8.77;;
70216;SDS011;65567;55.684;37.570;2023-08-20T05:39:41;11.68;;;9.52;;
70216;SDS011;65567;55.684;37.570;2023-08-20T05:42:08;12.75;;;9.43;;
70216;SDS011;65567;55.684;37.570;2023-08-20T05:44:33;10.50;;;8.68;;
70216;SDS011;65567;55.684;37.570;2023-08-20T05:46:59;12.10;;;8.98;;
70216;SDS011;65567;55.684;37.570;2023-08-20T05:49:26;10.30;;;8.80;;
70216;SDS011;65567;55.684;37.570;2023-08-20T05:51:52;11.23;;;9.00;;
70216;SDS011;65567;55.684;37.570;2023-08-20T05:54:17;11.27;;;8.77;;
70216;SDS011;65567;55.684;37.570;2023-08-20T05:56:43;11.70;;;9.20;;
70216;SDS011;65567;55.684;37.570;2023-08-20T05:59:08;10.35;;;9.13;;
70216;SDS011;65567;55.684;37.570;2023-08-20T06:01:34;10.82;;;9.00;;
70216;SDS011;65567;55.684;37.570;2023-08-20T06:03:59;10.55;;;9.02;;
70216;SDS011;65567;55.684;37.570;2023-08-20T06:06:25;12.05;;;9.75;;
70216;SDS011;65567;55.684;37.570;2023-08-20T06:08:51;11.57;;;9.30;;
70216;SDS011;65567;55.684;37.570;2023-08-20T06:11:17;12.98;;;9.55;;
70216;SDS011;65567;55.684;37.570;2023-08-20T06:13:43;11.27;;;8.95;;
70216;SDS011;65567;55.684;37.570;2023-08-20T06:16:08;14.90;;;10.88;;
70216;SDS011;65567;55.684;37.570;2023-08-20T06:18:34;11.18;;;9.25;;
70216;SDS011;65567;55.684;37.570;2023-08-20T06:20:59;10.90;;;8.40;;
70216;SDS011;65567;55.684;37.570;2023-08-20T06:23:25;10.10;;;8.77;;
70216;SDS011;65567;55.684;37.570;2023-08-20T06:25:50;10.70;;;8.07;;
70216;SDS011;65567;55.684;37.570;2023-08-20T06:28:16;9.63;;;7.78;;
70216;SDS011;65567;55.684;37.570;2023-08-20T06:30:43;9.38;;;8.27;;
70216;SDS011;65567;55.684;37.570;2023-08-20T06:33:09;13.10;;;9.40;;
70216;SDS011;65567;55.684;37.570;2023-08-20T06:35:35;8.90;;;8.00;;
70216;SDS011;65567;55.684;37.570;2023-08-20T06:38:00;11.60;;;7.65;;
70216;SDS011;65567;55.684;37.570;2023-08-20T06:40:26;9.40;;;8.00;;
70216;SDS011;65567;55.684;37.570;2023-08-20T06:42:51;10.55;;;7.70;;
70216;SDS011;65567;55.684;37.570;2023-08-20T06:45:17;9.63;;;7.13;;
70216;SDS011;65567;55.684;37.570;2023-08-20T06:47:42;7.25;;;6.38;;
70216;SDS011;65567;55.684;37.570;2023-08-20T06:50:08;10.45;;;7.25;;
70216;SDS011;65567;55.684;37.570;2023-08-20T06:52:34;9.90;;;7.53;;
70216;SDS011;65567;55.684;37.570;2023-08-20T06:55:00;9.00;;;7.82;;
70216;SDS011;65567;55.684;37.570;2023-08-20T06:57:25;7.00;;;6.18;;
70216;SDS011;65567;55.684;37.570;2023-08-20T06:59:50;9.05;;;6.03;;
70216;SDS011;65567;55.684;37.570;2023-08-20T07:02:16;8.20;;;6.25;;
70216;SDS011;65567;55.684;37.570;2023-08-20T07:04:41;6.78;;;6.07;;
70216;SDS011;65567;55.684;37.570;2023-08-20T07:07:07;8.05;;;5.90;;
70216;SDS011;65567;55.684;37.570;2023-08-20T07:09:33;7.30;;;5.68;;
70216;SDS011;65567;55.684;37.570;2023-08-20T07:11:58;7.95;;;5.28;;
70216;SDS011;65567;55.684;37.570;2023-08-20T07:14:24;6.35;;;4.78;;
70216;SDS011;65567;55.684;37.570;2023-08-20T07:16:49;5.85;;;4.88;;
70216;SDS011;65567;55.684;37.570;2023-08-20T07:19:15;5.97;;;4.70;;
70216;SDS011;65567;55.684;37.570;2023-08-20T07:21:40;6.13;;;5.13;;
70216;SDS011;65567;55.684;37.570;2023-08-20T07:24:06;7.70;;;5.03;;
70216;SDS011;65567;55.684;37.570;2023-08-20T07:26:32;7.40;;;4.53;;
70216;SDS011;65567;55.684;37.570;2023-08-20T07:28:57;7.55;;;4.40;;
70216;SDS011;65567;55.684;37.570;2023-08-20T07:31:27;7.82;;;4.80;;
70216;SDS011;65567;55.684;37.570;2023-08-20T07:33:54;6.15;;;4.68;;
70216;SDS011;65567;55.684;37.570;2023-08-20T07:36:21;5.55;;;4.22;;
70216;SDS011;65567;55.684;37.570;2023-08-20T07:38:47;6.28;;;4.35;;
70216;SDS011;65567;55.684;37.570;2023-08-20T07:41:13;5.25;;;4.25;;
70216;SDS011;65567;55.684;37.570;2023-08-20T07:43:39;5.57;;;4.43;;
70216;SDS011;65567;55.684;37.570;2023-08-20T07:46:06;6.00;;;4.00;;
70216;SDS011;65567;55.684;37.570;2023-08-20T07:48:32;7.35;;;4.57;;
70216;SDS011;65567;55.684;37.570;2023-08-20T07:50:59;4.93;;;4.13;;
70216;SDS011;65567;55.684;37.570;2023-08-20T07:53:24;6.85;;;4.57;;
70216;SDS011;65567;55.684;37.570;2023-08-20T07:55:50;7.00;;;4.38;;
70216;SDS011;65567;55.684;37.570;2023-08-20T07:58:15;5.57;;;4.85;;
70216;SDS011;65567;55.684;37.570;2023-08-20T08:00:41;4.88;;;4.40;;
70216;SDS011;65567;55.684;37.570;2023-08-20T08:03:06;5.05;;;4.18;;
70216;SDS011;65567;55.684;37.570;2023-08-20T08:05:32;5.95;;;4.20;;
70216;SDS011;65567;55.684;37.570;2023-08-20T08:07:58;6.70;;;4.20;;
70216;SDS011;65567;55.684;37.570;2023-08-20T08:10:23;6.20;;;4.05;;
70216;SDS011;65567;55.684;37.570;2023-08-20T08:12:49;4.43;;;3.97;;
70216;SDS011;65567;55.684;37.570;2023-08-20T08:15:14;7.05;;;4.43;;
70216;SDS011;65567;55.684;37.570;2023-08-20T08:17:40;5.68;;;4.03;;
70216;SDS011;65567;55.684;37.570;2023-08-20T08:20:05;6.20;;;4.20;;
70216;SDS011;65567;55.684;37.570;2023-08-20T08:22:31;5.13;;;3.83;;
70216;SDS011;65567;55.684;37.570;2023-08-20T08:24:56;6.65;;;4.20;;
70216;SDS011;65567;55.684;37.570;2023-08-20T08:27:22;10.38;;;3.85;;
70216;SDS011;65567;55.684;37.570;2023-08-20T08:29:47;5.05;;;4.00;;
70216;SDS011;65567;55.684;37.570;2023-08-20T08:32:13;6.68;;;4.68;;
70216;SDS011;65567;55.684;37.570;2023-08-20T08:34:39;5.85;;;4.25;;
70216;SDS011;65567;55.684;37.570;2023-08-20T08:37:04;6.18;;;4.35;;
70216;SDS011;65567;55.684;37.570;2023-08-20T08:39:29;5.07;;;3.90;;
70216;SDS011;65567;55.684;37.570;2023-08-20T08:41:56;5.53;;;4.18;;
70216;SDS011;65567;55.684;37.570;2023-08-20T08:44:32;6.28;;;4.35;;
70216;SDS011;65567;55.684;37.570;2023-08-20T08:46:58;4.97;;;4.18;;
70216;SDS011;65567;55.684;37.570;2023-08-20T08:49:23;4.68;;;3.95;;
70216;SDS011;65567;55.684;37.570;2023-08-20T08:51:51;6.40;;;3.92;;
70216;SDS011;65567;55.684;37.570;2023-08-20T08:54:18;5.43;;;3.65;;
70216;SDS011;65567;55.684;37.570;2023-08-20T08:56:45;6.88;;;3.50;;
70216;SDS011;65567;55.684;37.570;2023-08-20T08:59:11;5.32;;;4.10;;
70216;SDS011;65567;55.684;37.570;2023-08-20T09:01:39;4.10;;;3.70;;
70216;SDS011;65567;55.684;37.570;2023-08-20T09:04:06;6.82;;;4.30;;
70216;SDS011;65567;55.684;37.570;2023-08-20T09:06:44;6.75;;;3.60;;
70216;SDS011;65567;55.684;37.570;2023-08-20T09:09:16;4.30;;;3.40;;
70216;SDS011;65567;55.684;37.570;2023-08-20T09:11:42;5.30;;;3.70;;
70216;SDS011;65567;55.684;37.570;2023-08-20T09:14:07;3.80;;;3.22;;
70216;SDS011;65567;55.684;37.570;2023-08-20T09:16:33;5.72;;;3.40;;
70216;SDS011;65567;55.684;37.570;2023-08-20T09:18:59;5.60;;;3.20;;
70216;SDS011;65567;55.684;37.570;2023-08-20T09:21:28;4.20;;;3.45;;
70216;SDS011;65567;55.684;37.570;2023-08-20T09:23:54;6.40;;;3.60;;
70216;SDS011;65567;55.684;37.570;2023-08-20T09:26:21;4.90;;;3.40;;
70216;SDS011;65567;55.684;37.570;2023-08-20T09:28:46;3.20;;;2.88;;
70216;SDS011;65567;55.684;37.570;2023-08-20T09:31:13;5.78;;;3.15;;
70216;SDS011;65567;55.684;37.570;2023-08-20T09:33:52;3.92;;;2.95;;
70216;SDS011;65567;55.684;37.570;2023-08-20T09:36:18;13.23;;;11.93;;
70216;SDS011;65567;55.684;37.570;2023-08-20T09:38:55;3.47;;;2.80;;
70216;SDS011;65567;55.684;37.570;2023-08-20T09:41:20;4.65;;;3.17;;
70216;SDS011;65567;55.684;37.570;2023-08-20T09:43:47;5.40;;;3.33;;
70216;SDS011;65567;55.684;37.570;2023-08-20T09:46:17;5.75;;;3.42;;
70216;SDS011;65567;55.684;37.570;2023-08-20T09:48:45;3.60;;;2.95;;
70216;SDS011;65567;55.684;37.570;2023-08-20T09:51:13;3.40;;;2.88;;
70216;SDS011;65567;55.684;37.570;2023-08-20T09:53:51;6.60;;;3.58;;
70216;SDS011;65567;55.684;37.570;2023-08-20T09:58:54;5.22;;;3.40;;
70216;SDS011;65567;55.684;37.570;2023-08-20T10:01:22;5.43;;;3.38;;
70216;SDS011;65567;55.684;37.570;2023-08-20T10:03:48;6.25;;;3.30;;
70216;SDS011;65567;55.684;37.570;2023-08-20T10:06:14;5.10;;;3.20;;
70216;SDS011;65567;55.684;37.570;2023-08-20T10:08:39;4.65;;;3.33;;
70216;SDS011;65567;55.684;37.570;2023-08-20T10:11:05;3.75;;;3.30;;
70216;SDS011;65567;55.684;37.570;2023-08-20T10:13:30;5.75;;;3.42;;
70216;SDS011;65567;55.684;37.570;2023-08-20T10:15:56;4.50;;;3.42;;
70216;SDS011;65567;55.684;37.570;2023-08-20T10:18:22;5.50;;;3.63;;
70216;SDS011;65567;55.684;37.570;2023-08-20T10:20:51;5.10;;;3.50;;
70216;SDS011;65567;55.684;37.570;2023-08-20T10:23:19;6.18;;;3.65;;
70216;SDS011;65567;55.684;37.570;2023-08-20T10:25:49;5.85;;;3.33;;
70216;SDS011;65567;55.684;37.570;2023-08-20T10:33:36;5.95;;;3.88;;
70216;SDS011;65567;55.684;37.570;2023-08-20T10:36:18;4.85;;;3.65;;
70216;SDS011;65567;55.684;37.570;2023-08-20T10:38:51;6.47;;;4.60;;
70216;SDS011;65567;55.684;37.570;2023-08-20T10:41:24;4.25;;;3.40;;
70216;SDS011;65567;55.684;37.570;2023-08-20T10:43:53;5.75;;;3.60;;
70216;SDS011;65567;55.684;37.570;2023-08-20T10:46:23;6.55;;;3.60;;
70216;SDS011;65567;55.684;37.570;2023-08-20T10:51:37;4.30;;;3.90;;
70216;SDS011;65567;55.684;37.570;2023-08-20T10:54:06;7.55;;;4.03;;
70216;SDS011;65567;55.684;37.570;2023-08-20T10:59:34;6.07;;;3.97;;
70216;SDS011;65567;55.684;37.570;2023-08-20T11:02:05;5.85;;;3.63;;
70216;SDS011;65567;55.684;37.570;2023-08-20T11:04:36;6.28;;;4.22;;
70216;SDS011;65567;55.684;37.570;2023-08-20T11:07:03;5.85;;;3.78;;
70216;SDS011;65567;55.684;37.570;2023-08-20T11:09:30;7.47;;;4.18;;
70216;SDS011;65567;55.684;37.570;2023-08-20T11:11:56;5.68;;;3.70;;
70216;SDS011;65567;55.684;37.570;2023-08-20T11:14:22;5.95;;;4.05;;
70216;SDS011;65567;55.684;37.570;2023-08-20T11:16:48;3.92;;;3.53;;
70216;SDS011;65567;55.684;37.570;2023-08-20T11:19:15;4.30;;;3.90;;
70216;SDS011;65567;55.684;37.570;2023-08-20T11:24:11;6.43;;;3.50;;
70216;SDS011;65567;55.684;37.570;2023-08-20T11:26:38;7.07;;;3.97;;
70216;SDS011;65567;55.684;37.570;2023-08-20T11:29:11;5.30;;;3.95;;
70216;SDS011;65567;55.684;37.570;2023-08-20T11:31:39;4.93;;;4.03;;
70216;SDS011;65567;55.684;37.570;2023-08-20T11:34:05;6.50;;;4.50;;
70216;SDS011;65567;55.684;37.570;2023-08-20T11:36:31;5.97;;;4.20;;
70216;SDS011;65567;55.684;37.570;2023-08-20T11:38:57;5.43;;;4.25;;
70216;SDS011;65567;55.684;37.570;2023-08-20T11:41:23;9.02;;;6.35;;
70216;SDS011;65567;55.684;37.570;2023-08-20T11:43:50;6.28;;;4.30;;
70216;SDS011;65567;55.684;37.570;2023-08-20T11:46:20;7.15;;;4.65;;
70216;SDS011;65567;55.684;37.570;2023-08-20T11:51:28;5.40;;;4.18;;
70216;SDS011;65567;55.684;37.570;2023-08-20T11:53:57;7.10;;;4.82;;
70216;SDS011;65567;55.684;37.570;2023-08-20T11:56:23;5.25;;;4.25;;
70216;SDS011;65567;55.684;37.570;2023-08-20T11:58:51;3.50;;;2.55;;
70216;SDS011;65567;55.684;37.570;2023-08-20T12:01:18;4.57;;;2.72;;
70216;SDS011;65567;55.684;37.570;2023-08-20T12:03:44;2.70;;;1.92;;
70216;SDS011;65567;55.684;37.570;2023-08-20T12:06:19;3.33;;;2.53;;
70216;SDS011;65567;55.684;37.570;2023-08-20T12:08:45;3.30;;;2.20;;
70216;SDS011;65567;55.684;37.570;2023-08-20T12:11:11;5.95;;;2.40;;
70216;SDS011;65567;55.684;37.570;2023-08-20T12:13:36;4.95;;;2.20;;
70216;SDS011;65567;55.684;37.570;2023-08-20T12:16:02;9.43;;;2.63;;
70216;SDS011;65567;55.684;37.570;2023-08-20T12:18:27;6.35;;;2.72;;
70216;SDS011;65567;55.684;37.570;2023-08-20T12:20:54;5.45;;;2.92;;
70216;SDS011;65567;55.684;37.570;2023-08-20T12:23:20;5.45;;;2.78;;
70216;SDS011;65567;55.684;37.570;2023-08-20T12:25:49;7.55;;;2.70;;
70216;SDS011;65567;55.684;37.570;2023-08-20T12:28:16;5.25;;;2.53;;
70216;SDS011;65567;55.684;37.570;2023-08-20T12:30:41;6.78;;;2.50;;
70216;SDS011;65567;55.684;37.570;2023-08-20T12:33:07;3.75;;;2.03;;
70216;SDS011;65567;55.684;37.570;2023-08-20T12:35:32;4.80;;;2.45;;
70216;SDS011;65567;55.684;37.570;2023-08-20T12:37:58;7.25;;;2.78;;
70216;SDS011;65567;55.684;37.570;2023-08-20T12:40:23;5.00;;;2.42;;
70216;SDS011;65567;55.684;37.570;2023-08-20T12:42:49;5.50;;;3.63;;
70216;SDS011;65567;55.684;37.570;2023-08-20T12:45:14;5.03;;;2.47;;
70216;SDS011;65567;55.684;37.570;2023-08-20T12:47:40;5.18;;;2.67;;
70216;SDS011;65567;55.684;37.570;2023-08-20T12:50:06;6.20;;;2.58;;
70216;SDS011;65567;55.684;37.570;2023-08-20T12:52:32;3.58;;;2.60;;
70216;SDS011;65567;55.684;37.570;2023-08-20T12:54:58;7.95;;;2.88;;
70216;SDS011;65567;55.684;37.570;2023-08-20T12:57:23;4.25;;;1.58;;
70216;SDS011;65567;55.684;37.570;2023-08-20T12:59:49;4.32;;;1.27;;
70216;SDS011;65567;55.684;37.570;2023-08-20T13:02:15;3.03;;;1.45;;
70216;SDS011;65567;55.684;37.570;2023-08-20T13:04:41;3.00;;;1.63;;
70216;SDS011;65567;55.684;37.570;2023-08-20T13:07:07;3.63;;;1.83;;
70216;SDS011;65567;55.684;37.570;2023-08-20T13:09:32;4.05;;;1.33;;
70216;SDS011;65567;55.684;37.570;2023-08-20T13:12:00;5.15;;;1.90;;
70216;SDS011;65567;55.684;37.570;2023-08-20T13:14:28;3.17;;;1.88;;
70216;SDS011;65567;55.684;37.570;2023-08-20T13:16:54;4.82;;;1.92;;
70216;SDS011;65567;55.684;37.570;2023-08-20T13:19:21;3.20;;;2.10;;
70216;SDS011;65567;55.684;37.570;2023-08-20T13:21:47;3.13;;;2.20;;
70216;SDS011;65567;55.684;37.570;2023-08-20T13:24:12;4.18;;;2.30;;
70216;SDS011;65567;55.684;37.570;2023-08-20T13:26:38;5.15;;;2.42;;
70216;SDS011;65567;55.684;37.570;2023-08-20T13:29:03;5.80;;;3.03;;
70216;SDS011;65567;55.684;37.570;2023-08-20T13:31:29;4.88;;;2.70;;
70216;SDS011;65567;55.684;37.570;2023-08-20T13:33:54;7.50;;;3.83;;
70216;SDS011;65567;55.684;37.570;2023-08-20T13:36:20;7.93;;;4.10;;
70216;SDS011;65567;55.684;37.570;2023-08-20T13:38:45;4.68;;;2.70;;
70216;SDS011;65567;55.684;37.570;2023-08-20T13:41:11;5.05;;;3.13;;
70216;SDS011;65567;55.684;37.570;2023-08-20T13:43:36;5.18;;;3.38;;
70216;SDS011;65567;55.684;37.570;2023-08-20T13:46:02;6.18;;;3.72;;
70216;SDS011;65567;55.684;37.570;2023-08-20T13:48:28;5.63;;;4.20;;
70216;SDS011;65567;55.684;37.570;2023-08-20T13:50:53;7.15;;;3.88;;
70216;SDS011;65567;55.684;37.570;2023-08-20T13:53:19;5.78;;;3.97;;
70216;SDS011;65567;55.684;37.570;2023-08-20T13:55:44;6.53;;;4.00;;
70216;SDS011;65567;55.684;37.570;2023-08-20T13:58:10;8.23;;;4.00;;
70216;SDS011;65567;55.684;37.570;2023-08-20T14:00:35;8.02;;;4.20;;
70216;SDS011;65567;55.684;37.570;2023-08-20T14:03:00;6.53;;;4.82;;
70216;SDS011;65567;55.684;37.570;2023-08-20T14:05:26;6.18;;;3.67;;
70216;SDS011;65567;55.684;37.570;2023-08-20T14:07:54;7.43;;;4.30;;
70216;SDS011;65567;55.684;37.570;2023-08-20T14:10:19;7.60;;;4.72;;
70216;SDS011;65567;55.684;37.570;2023-08-20T14:12:45;6.55;;;4.60;;
70216;SDS011;65567;55.684;37.570;2023-08-20T14:15:10;8.02;;;4.63;;
70216;SDS011;65567;55.684;37.570;2023-08-20T14:17:36;4.88;;;3.75;;
70216;SDS011;65567;55.684;37.570;2023-08-20T14:20:01;6.80;;;4.15;;
70216;SDS011;65567;55.684;37.570;2023-08-20T14:22:28;4.93;;;4.13;;
70216;SDS011;65567;55.684;37.570;2023-08-20T14:24:53;6.55;;;4.10;;
70216;SDS011;65567;55.684;37.570;2023-08-20T14:27:20;5.95;;;4.80;;
70216;SDS011;65567;55.684;37.570;2023-08-20T14:29:47;8.20;;;4.65;;
70216;SDS011;65567;55.684;37.570;2023-08-20T14:32:13;5.75;;;4.60;;
70216;SDS011;65567;55.684;37.570;2023-08-20T14:34:38;6.07;;;4.63;;
70216;SDS011;65567;55.684;37.570;2023-08-20T14:37:04;6.65;;;4.20;;
70216;SDS011;65567;55.684;37.570;2023-08-20T14:39:29;6.00;;;4.38;;
70216;SDS011;65567;55.684;37.570;2023-08-20T14:41:56;5.20;;;4.13;;